LFBD/BOD METAR and TAF weather

Enter ICAO airport designator
Station Type Date Time Source
LFBD METAR 2019/06/18 04:30 UTC NOAA

LFBD 180430Z AUTO VRB03KT 9999 -RA ///TCU 19/16 Q1011 TEMPO -TSRA SCT080CB BKN090TCU


Station Type Date Time Source
LFBD Decoded METAR 2019/06/18 04:30 UTC NOAA

Bordeaux / Merignac, France (LFBD) 44-50N 000-42W 61M
Jun 18, 2019 - 12:30 AM EDT / 2019.06.18 0430 UTC
Wind: Variable at 3 MPH (3 KT):0
Visibility: greater than 7 mile(s):0
Weather: light rain; Cumulonimbus clouds, towering cumulus clouds observed
Temperature: 66 F (19 C)
Dew Point: 60 F (16 C)
Relative Humidity: 82%
Pressure (altimeter): 29.85 in. Hg (1011 hPa)
ob: LFBD 180430Z AUTO VRB03KT 9999 -RA ///TCU 19/16 Q1011 TEMPO -TSRA SCT080CB BKN090TCU
cycle: 4

Station Type Date Time Source
LFBD TAF 2019/06/18 03:59 UTC NOAA

TAF
AMD LFBD 180355Z 1803/1906 10005KT CAVOK TX31/1815Z TN16/1906Z PROB30
TEMPO 1803/1806 25010KT -TSRA SCT080CB BKN090TCU
BECMG 1812/1814 25010KT
BECMG 1818/1820 31006KT PROB30
TEMPO 1821/1824 -SHRA BKN015 BKN080TCU
TEMPO 1900/1906 BKN014

Example: see airport list